Sebastopol, Texas
Current Conditions -  °F | °C
As of 12:55 PM on Friday 21 Nov 2014 (Local Time) from KDKR Reporting Station
Overcast Overcast  
Wind Chill: 66°   Ceiling: 800
Heat Index: 66°   Visibility: 9mi
Dew Point: 66°   Wind: 6mph
Humidity: 100%   Direction: 150°SSE
Pressure: 30.15"   Gusts: NA
Location:  30.9905°N, 95.3368°W
Report Text: KDKR 211855Z AUTO 15005KT 9SM SCT002 OVC008 19/19 A3015 RMK AO2 P0019
Loading
Personal Weather Stations






























Interactive Weather Map New forecast layout! Learn more

10-Day Weather Forecast

Advertisements
Track Severe Weather on mobile